sensor_id;sensor_type;location;lat;lon;timestamp;temperature;humidity
9772;DHT22;4925;52.588;13.370;2023-05-28T00:01:54;15.10;99.90
9772;DHT22;4925;52.588;13.370;2023-05-28T00:04:20;15.10;99.90
9772;DHT22;4925;52.588;13.370;2023-05-28T00:06:47;15.20;99.90
9772;DHT22;4925;52.588;13.370;2023-05-28T00:09:15;15.10;99.90
9772;DHT22;4925;52.588;13.370;2023-05-28T00:11:41;15.10;99.90
9772;DHT22;4925;52.588;13.370;2023-05-28T00:14:07;15.10;99.90
9772;DHT22;4925;52.588;13.370;2023-05-28T00:16:33;15.00;99.90
9772;DHT22;4925;52.588;13.370;2023-05-28T00:19:02;14.90;99.90
9772;DHT22;4925;52.588;13.370;2023-05-28T00:21:28;14.80;99.90
9772;DHT22;4925;52.588;13.370;2023-05-28T00:23:53;14.80;99.90
9772;DHT22;4925;52.588;13.370;2023-05-28T00:26:19;14.80;99.90
9772;DHT22;4925;52.588;13.370;2023-05-28T00:28:45;14.70;99.90
9772;DHT22;4925;52.588;13.370;2023-05-28T00:31:11;14.60;99.90
9772;DHT22;4925;52.588;13.370;2023-05-28T00:33:37;14.50;99.90
9772;DHT22;4925;52.588;13.370;2023-05-28T00:36:03;14.50;99.90
9772;DHT22;4925;52.588;13.370;2023-05-28T00:38:28;14.40;99.90
9772;DHT22;4925;52.588;13.370;2023-05-28T00:40:54;14.40;99.90
9772;DHT22;4925;52.588;13.370;2023-05-28T00:43:20;14.40;99.90
9772;DHT22;4925;52.588;13.370;2023-05-28T00:45:47;14.40;99.90
9772;DHT22;4925;52.588;13.370;2023-05-28T00:48:14;14.30;99.90
9772;DHT22;4925;52.588;13.370;2023-05-28T00:50:40;14.30;99.90
9772;DHT22;4925;52.588;13.370;2023-05-28T00:53:08;14.20;99.90
9772;DHT22;4925;52.588;13.370;2023-05-28T00:55:34;14.20;99.90
9772;DHT22;4925;52.588;13.370;2023-05-28T00:58:00;14.20;99.90
9772;DHT22;4925;52.588;13.370;2023-05-28T01:00:32;14.10;99.90
9772;DHT22;4925;52.588;13.370;2023-05-28T01:02:58;14.10;99.90
9772;DHT22;4925;52.588;13.370;2023-05-28T01:05:24;14.10;99.90
9772;DHT22;4925;52.588;13.370;2023-05-28T01:07:50;14.00;99.90
9772;DHT22;4925;52.588;13.370;2023-05-28T01:10:16;14.00;99.90
9772;DHT22;4925;52.588;13.370;2023-05-28T01:12:42;14.00;99.90
9772;DHT22;4925;52.588;13.370;2023-05-28T01:15:09;13.90;99.90
9772;DHT22;4925;52.588;13.370;2023-05-28T01:17:36;13.90;99.90
9772;DHT22;4925;52.588;13.370;2023-05-28T01:20:04;13.90;99.90
9772;DHT22;4925;52.588;13.370;2023-05-28T01:22:43;13.90;99.90
9772;DHT22;4925;52.588;13.370;2023-05-28T01:25:12;13.80;99.90
9772;DHT22;4925;52.588;13.370;2023-05-28T01:27:41;13.80;99.90
9772;DHT22;4925;52.588;13.370;2023-05-28T01:30:08;13.70;99.90
9772;DHT22;4925;52.588;13.370;2023-05-28T01:32:40;13.70;99.90
9772;DHT22;4925;52.588;13.370;2023-05-28T01:35:07;13.60;99.90
9772;DHT22;4925;52.588;13.370;2023-05-28T01:37:40;13.50;99.90
9772;DHT22;4925;52.588;13.370;2023-05-28T01:40:07;13.50;99.90
9772;DHT22;4925;52.588;13.370;2023-05-28T01:42:34;13.40;99.90
9772;DHT22;4925;52.588;13.370;2023-05-28T01:45:02;13.40;99.90
9772;DHT22;4925;52.588;13.370;2023-05-28T01:47:29;13.40;99.90
9772;DHT22;4925;52.588;13.370;2023-05-28T01:49:55;13.40;99.90
9772;DHT22;4925;52.588;13.370;2023-05-28T01:52:21;13.40;99.90
9772;DHT22;4925;52.588;13.370;2023-05-28T01:54:46;13.40;99.90
9772;DHT22;4925;52.588;13.370;2023-05-28T01:57:12;13.40;99.90
9772;DHT22;4925;52.588;13.370;2023-05-28T01:59:38;13.30;99.90
9772;DHT22;4925;52.588;13.370;2023-05-28T02:02:04;13.30;99.90
9772;DHT22;4925;52.588;13.370;2023-05-28T02:04:30;13.30;99.90
9772;DHT22;4925;52.588;13.370;2023-05-28T02:06:56;13.30;99.90
9772;DHT22;4925;52.588;13.370;2023-05-28T02:09:22;13.30;99.90
9772;DHT22;4925;52.588;13.370;2023-05-28T02:11:47;13.30;99.90
9772;DHT22;4925;52.588;13.370;2023-05-28T02:14:13;13.30;99.90
9772;DHT22;4925;52.588;13.370;2023-05-28T02:16:46;13.30;99.90
9772;DHT22;4925;52.588;13.370;2023-05-28T02:19:15;13.20;99.90
9772;DHT22;4925;52.588;13.370;2023-05-28T02:21:41;13.20;99.90
9772;DHT22;4925;52.588;13.370;2023-05-28T02:24:07;13.20;99.90
9772;DHT22;4925;52.588;13.370;2023-05-28T02:26:33;13.20;99.90
9772;DHT22;4925;52.588;13.370;2023-05-28T02:28:58;13.20;99.90
9772;DHT22;4925;52.588;13.370;2023-05-28T02:31:24;13.20;99.90
9772;DHT22;4925;52.588;13.370;2023-05-28T02:33:50;13.10;99.90
9772;DHT22;4925;52.588;13.370;2023-05-28T02:36:16;13.10;99.90
9772;DHT22;4925;52.588;13.370;2023-05-28T02:38:42;13.00;99.90
9772;DHT22;4925;52.588;13.370;2023-05-28T02:41:08;13.00;99.90
9772;DHT22;4925;52.588;13.370;2023-05-28T02:43:34;12.90;99.90
9772;DHT22;4925;52.588;13.370;2023-05-28T02:46:00;13.00;99.90
9772;DHT22;4925;52.588;13.370;2023-05-28T02:48:26;13.00;99.90
9772;DHT22;4925;52.588;13.370;2023-05-28T02:50:52;13.00;99.90
9772;DHT22;4925;52.588;13.370;2023-05-28T02:53:22;13.00;99.90
9772;DHT22;4925;52.588;13.370;2023-05-28T02:55:48;13.00;99.90
9772;DHT22;4925;52.588;13.370;2023-05-28T02:58:14;12.90;99.90
9772;DHT22;4925;52.588;13.370;2023-05-28T03:00:40;12.90;99.90
9772;DHT22;4925;52.588;13.370;2023-05-28T03:03:06;12.90;99.90
9772;DHT22;4925;52.588;13.370;2023-05-28T03:05:31;12.90;99.90
9772;DHT22;4925;52.588;13.370;2023-05-28T03:07:58;12.90;99.90
9772;DHT22;4925;52.588;13.370;2023-05-28T03:10:24;12.90;99.90
9772;DHT22;4925;52.588;13.370;2023-05-28T03:12:50;12.90;99.90
9772;DHT22;4925;52.588;13.370;2023-05-28T03:15:16;12.90;99.90
9772;DHT22;4925;52.588;13.370;2023-05-28T03:17:42;12.90;99.90
9772;DHT22;4925;52.588;13.370;2023-05-28T03:20:08;12.90;99.90
9772;DHT22;4925;52.588;13.370;2023-05-28T03:22:36;12.90;99.90
9772;DHT22;4925;52.588;13.370;2023-05-28T03:25:02;12.90;99.90
9772;DHT22;4925;52.588;13.370;2023-05-28T03:27:28;12.90;99.90
9772;DHT22;4925;52.588;13.370;2023-05-28T03:29:54;12.90;99.90
9772;DHT22;4925;52.588;13.370;2023-05-28T03:32:19;12.90;99.90
9772;DHT22;4925;52.588;13.370;2023-05-28T03:34:45;12.90;99.90
9772;DHT22;4925;52.588;13.370;2023-05-28T03:37:11;12.90;99.90
9772;DHT22;4925;52.588;13.370;2023-05-28T03:39:37;12.90;99.90
9772;DHT22;4925;52.588;13.370;2023-05-28T03:42:03;12.90;99.90
9772;DHT22;4925;52.588;13.370;2023-05-28T03:44:28;13.00;99.90
9772;DHT22;4925;52.588;13.370;2023-05-28T03:46:54;13.00;99.90
9772;DHT22;4925;52.588;13.370;2023-05-28T03:49:20;13.00;99.90
9772;DHT22;4925;52.588;13.370;2023-05-28T03:51:46;13.00;99.90
9772;DHT22;4925;52.588;13.370;2023-05-28T03:54:11;13.10;99.90
9772;DHT22;4925;52.588;13.370;2023-05-28T03:56:37;13.10;99.90
9772;DHT22;4925;52.588;13.370;2023-05-28T03:59:02;13.10;99.90
9772;DHT22;4925;52.588;13.370;2023-05-28T04:01:28;13.20;99.90
9772;DHT22;4925;52.588;13.370;2023-05-28T04:03:54;13.20;99.90
9772;DHT22;4925;52.588;13.370;2023-05-28T04:06:21;13.30;99.90
9772;DHT22;4925;52.588;13.370;2023-05-28T04:08:47;13.30;99.90
9772;DHT22;4925;52.588;13.370;2023-05-28T04:11:13;13.30;99.90
9772;DHT22;4925;52.588;13.370;2023-05-28T04:13:39;13.30;99.90
9772;DHT22;4925;52.588;13.370;2023-05-28T04:16:05;13.40;99.90
9772;DHT22;4925;52.588;13.370;2023-05-28T04:18:32;13.50;99.90
9772;DHT22;4925;52.588;13.370;2023-05-28T04:20:57;13.50;99.90
9772;DHT22;4925;52.588;13.370;2023-05-28T04:23:23;13.60;99.90
9772;DHT22;4925;52.588;13.370;2023-05-28T04:25:49;13.70;99.90
9772;DHT22;4925;52.588;13.370;2023-05-28T04:28:15;13.80;99.90
9772;DHT22;4925;52.588;13.370;2023-05-28T04:30:41;13.80;99.90
9772;DHT22;4925;52.588;13.370;2023-05-28T04:33:07;13.90;99.90
9772;DHT22;4925;52.588;13.370;2023-05-28T04:35:34;14.00;99.90
9772;DHT22;4925;52.588;13.370;2023-05-28T04:37:59;14.10;99.90
9772;DHT22;4925;52.588;13.370;2023-05-28T04:40:25;14.10;99.90
9772;DHT22;4925;52.588;13.370;2023-05-28T04:42:51;14.20;99.90
9772;DHT22;4925;52.588;13.370;2023-05-28T04:45:20;14.20;99.90
9772;DHT22;4925;52.588;13.370;2023-05-28T04:47:48;14.40;99.90
9772;DHT22;4925;52.588;13.370;2023-05-28T04:50:14;14.50;99.90
9772;DHT22;4925;52.588;13.370;2023-05-28T04:52:40;14.50;99.90
9772;DHT22;4925;52.588;13.370;2023-05-28T04:55:06;14.60;99.90
9772;DHT22;4925;52.588;13.370;2023-05-28T04:57:32;14.80;99.90
9772;DHT22;4925;52.588;13.370;2023-05-28T04:59:58;14.80;99.90
9772;DHT22;4925;52.588;13.370;2023-05-28T05:02:24;15.00;99.90
9772;DHT22;4925;52.588;13.370;2023-05-28T05:04:50;15.00;99.90
9772;DHT22;4925;52.588;13.370;2023-05-28T05:07:16;15.10;99.90
9772;DHT22;4925;52.588;13.370;2023-05-28T05:09:42;15.20;99.90
9772;DHT22;4925;52.588;13.370;2023-05-28T05:12:09;15.30;99.90
9772;DHT22;4925;52.588;13.370;2023-05-28T05:14:35;15.40;99.90
9772;DHT22;4925;52.588;13.370;2023-05-28T05:17:02;15.50;99.90
9772;DHT22;4925;52.588;13.370;2023-05-28T05:19:28;15.60;99.90
9772;DHT22;4925;52.588;13.370;2023-05-28T05:21:54;15.60;99.90
9772;DHT22;4925;52.588;13.370;2023-05-28T05:24:19;15.80;99.90
9772;DHT22;4925;52.588;13.370;2023-05-28T05:26:46;15.90;99.90
9772;DHT22;4925;52.588;13.370;2023-05-28T05:29:12;16.00;99.90
9772;DHT22;4925;52.588;13.370;2023-05-28T05:31:37;16.00;99.90
9772;DHT22;4925;52.588;13.370;2023-05-28T05:34:03;16.10;99.90
9772;DHT22;4925;52.588;13.370;2023-05-28T05:36:29;16.30;99.90
9772;DHT22;4925;52.588;13.370;2023-05-28T05:38:56;16.40;99.90
9772;DHT22;4925;52.588;13.370;2023-05-28T05:41:22;16.50;99.90
9772;DHT22;4925;52.588;13.370;2023-05-28T05:43:47;16.60;99.90
9772;DHT22;4925;52.588;13.370;2023-05-28T05:46:13;16.70;99.90
9772;DHT22;4925;52.588;13.370;2023-05-28T05:48:40;16.80;99.90
9772;DHT22;4925;52.588;13.370;2023-05-28T05:51:06;17.00;99.90
9772;DHT22;4925;52.588;13.370;2023-05-28T05:53:31;17.20;99.90
9772;DHT22;4925;52.588;13.370;2023-05-28T05:55:57;17.20;99.90
9772;DHT22;4925;52.588;13.370;2023-05-28T05:58:23;17.40;99.90
9772;DHT22;4925;52.588;13.370;2023-05-28T06:00:48;17.60;99.90
9772;DHT22;4925;52.588;13.370;2023-05-28T06:03:14;17.70;99.40
9772;DHT22;4925;52.588;13.370;2023-05-28T06:05:40;17.80;98.90
9772;DHT22;4925;52.588;13.370;2023-05-28T06:08:06;17.90;99.90
9772;DHT22;4925;52.588;13.370;2023-05-28T06:10:33;18.00;99.20
9772;DHT22;4925;52.588;13.370;2023-05-28T06:12:59;18.10;98.20
9772;DHT22;4925;52.588;13.370;2023-05-28T06:15:28;18.20;97.60
9772;DHT22;4925;52.588;13.370;2023-05-28T06:17:55;18.30;98.00
9772;DHT22;4925;52.588;13.370;2023-05-28T06:20:21;18.50;98.20
9772;DHT22;4925;52.588;13.370;2023-05-28T06:22:47;18.60;97.50
9772;DHT22;4925;52.588;13.370;2023-05-28T06:25:13;18.80;96.80
9772;DHT22;4925;52.588;13.370;2023-05-28T06:27:41;18.90;96.70
9772;DHT22;4925;52.588;13.370;2023-05-28T06:30:07;19.00;95.00
9772;DHT22;4925;52.588;13.370;2023-05-28T06:32:33;18.70;94.30
9772;DHT22;4925;52.588;13.370;2023-05-28T06:35:00;19.00;94.30
9772;DHT22;4925;52.588;13.370;2023-05-28T06:37:26;19.30;93.90
9772;DHT22;4925;52.588;13.370;2023-05-28T06:39:51;19.30;93.20
9772;DHT22;4925;52.588;13.370;2023-05-28T06:42:17;19.50;92.70
9772;DHT22;4925;52.588;13.370;2023-05-28T06:44:43;19.50;91.10
9772;DHT22;4925;52.588;13.370;2023-05-28T06:47:09;19.70;90.50
9772;DHT22;4925;52.588;13.370;2023-05-28T06:49:34;19.90;90.50
9772;DHT22;4925;52.588;13.370;2023-05-28T06:52:01;19.90;87.00
9772;DHT22;4925;52.588;13.370;2023-05-28T06:54:26;20.10;86.10
9772;DHT22;4925;52.588;13.370;2023-05-28T06:56:52;20.10;82.90
9772;DHT22;4925;52.588;13.370;2023-05-28T06:59:18;20.30;81.20
9772;DHT22;4925;52.588;13.370;2023-05-28T07:01:43;20.50;80.10
9772;DHT22;4925;52.588;13.370;2023-05-28T07:04:09;20.60;76.90
9772;DHT22;4925;52.588;13.370;2023-05-28T07:06:35;20.70;75.00
9772;DHT22;4925;52.588;13.370;2023-05-28T07:09:00;20.50;71.10
9772;DHT22;4925;52.588;13.370;2023-05-28T07:11:26;20.70;72.30
9772;DHT22;4925;52.588;13.370;2023-05-28T07:13:52;20.90;71.80
9772;DHT22;4925;52.588;13.370;2023-05-28T07:16:20;20.90;71.00
9772;DHT22;4925;52.588;13.370;2023-05-28T07:18:46;21.10;70.60
9772;DHT22;4925;52.588;13.370;2023-05-28T07:21:12;21.20;69.60
9772;DHT22;4925;52.588;13.370;2023-05-28T07:23:38;21.10;65.50
9772;DHT22;4925;52.588;13.370;2023-05-28T07:26:06;21.30;65.20
9772;DHT22;4925;52.588;13.370;2023-05-28T07:28:32;21.40;65.70
9772;DHT22;4925;52.588;13.370;2023-05-28T07:30:57;21.60;63.70
9772;DHT22;4925;52.588;13.370;2023-05-28T07:33:23;21.70;61.80
9772;DHT22;4925;52.588;13.370;2023-05-28T07:35:49;21.80;60.30
9772;DHT22;4925;52.588;13.370;2023-05-28T07:38:15;21.90;57.90
9772;DHT22;4925;52.588;13.370;2023-05-28T07:40:41;21.70;54.60
9772;DHT22;4925;52.588;13.370;2023-05-28T07:43:07;21.60;54.10
9772;DHT22;4925;52.588;13.370;2023-05-28T07:45:34;21.70;55.00
9772;DHT22;4925;52.588;13.370;2023-05-28T07:48:00;21.90;53.10
9772;DHT22;4925;52.588;13.370;2023-05-28T07:50:26;22.20;52.10
9772;DHT22;4925;52.588;13.370;2023-05-28T07:52:52;22.30;51.10
9772;DHT22;4925;52.588;13.370;2023-05-28T07:55:18;22.40;50.50
9772;DHT22;4925;52.588;13.370;2023-05-28T07:57:44;22.50;50.20
9772;DHT22;4925;52.588;13.370;2023-05-28T08:00:10;22.60;49.20
9772;DHT22;4925;52.588;13.370;2023-05-28T08:02:44;22.50;48.40
9772;DHT22;4925;52.588;13.370;2023-05-28T08:05:10;22.40;48.80
9772;DHT22;4925;52.588;13.370;2023-05-28T08:07:36;22.30;48.60
9772;DHT22;4925;52.588;13.370;2023-05-28T08:10:03;22.40;47.50
9772;DHT22;4925;52.588;13.370;2023-05-28T08:12:28;22.50;46.00
9772;DHT22;4925;52.588;13.370;2023-05-28T08:14:54;22.40;45.90
9772;DHT22;4925;52.588;13.370;2023-05-28T08:17:23;22.10;43.90
9772;DHT22;4925;52.588;13.370;2023-05-28T08:19:49;21.80;42.80
9772;DHT22;4925;52.588;13.370;2023-05-28T08:22:16;21.70;42.10
9772;DHT22;4925;52.588;13.370;2023-05-28T08:24:50;21.80;42.30
9772;DHT22;4925;52.588;13.370;2023-05-28T08:27:16;21.90;42.30
9772;DHT22;4925;52.588;13.370;2023-05-28T08:29:42;22.20;42.20
9772;DHT22;4925;52.588;13.370;2023-05-28T08:32:07;22.30;40.50
9772;DHT22;4925;52.588;13.370;2023-05-28T08:34:33;21.70;39.50
9772;DHT22;4925;52.588;13.370;2023-05-28T08:37:04;21.80;41.20
9772;DHT22;4925;52.588;13.370;2023-05-28T08:39:29;22.30;42.60
9772;DHT22;4925;52.588;13.370;2023-05-28T08:41:56;22.60;42.30
9772;DHT22;4925;52.588;13.370;2023-05-28T08:44:22;23.00;39.70
9772;DHT22;4925;52.588;13.370;2023-05-28T08:46:48;23.50;35.30
9772;DHT22;4925;52.588;13.370;2023-05-28T08:49:17;23.60;35.70
9772;DHT22;4925;52.588;13.370;2023-05-28T08:51:46;23.80;35.50
9772;DHT22;4925;52.588;13.370;2023-05-28T08:54:15;24.10;34.40
9772;DHT22;4925;52.588;13.370;2023-05-28T08:56:40;24.40;33.60
9772;DHT22;4925;52.588;13.370;2023-05-28T08:59:09;24.60;30.30
9772;DHT22;4925;52.588;13.370;2023-05-28T09:01:36;24.80;31.00
9772;DHT22;4925;52.588;13.370;2023-05-28T09:04:03;24.90;30.50
9772;DHT22;4925;52.588;13.370;2023-05-28T09:06:31;25.10;29.60
9772;DHT22;4925;52.588;13.370;2023-05-28T09:08:57;25.40;27.70
9772;DHT22;4925;52.588;13.370;2023-05-28T09:11:23;25.40;27.10
9772;DHT22;4925;52.588;13.370;2023-05-28T09:13:49;25.40;27.20
9772;DHT22;4925;52.588;13.370;2023-05-28T09:16:22;25.20;26.90
9772;DHT22;4925;52.588;13.370;2023-05-28T09:19:01;25.70;27.60
9772;DHT22;4925;52.588;13.370;2023-05-28T09:21:28;25.70;26.90
9772;DHT22;4925;52.588;13.370;2023-05-28T09:23:53;26.10;26.80
9772;DHT22;4925;52.588;13.370;2023-05-28T09:26:19;26.20;26.40
9772;DHT22;4925;52.588;13.370;2023-05-28T09:28:45;26.20;26.50
9772;DHT22;4925;52.588;13.370;2023-05-28T09:31:11;26.40;25.90
9772;DHT22;4925;52.588;13.370;2023-05-28T09:33:46;26.70;24.80
9772;DHT22;4925;52.588;13.370;2023-05-28T09:36:14;26.70;25.00
9772;DHT22;4925;52.588;13.370;2023-05-28T09:38:41;26.80;24.40
9772;DHT22;4925;52.588;13.370;2023-05-28T09:41:24;26.50;24.40
9772;DHT22;4925;52.588;13.370;2023-05-28T09:44:00;26.80;25.00
9772;DHT22;4925;52.588;13.370;2023-05-28T09:46:30;26.50;22.90
9772;DHT22;4925;52.588;13.370;2023-05-28T09:48:57;26.20;23.10
9772;DHT22;4925;52.588;13.370;2023-05-28T09:51:32;26.40;23.50
9772;DHT22;4925;52.588;13.370;2023-05-28T09:54:04;26.40;23.00
9772;DHT22;4925;52.588;13.370;2023-05-28T09:56:32;26.90;23.50
9772;DHT22;4925;52.588;13.370;2023-05-28T09:59:02;27.30;23.00
9772;DHT22;4925;52.588;13.370;2023-05-28T10:01:38;27.80;21.80
9772;DHT22;4925;52.588;13.370;2023-05-28T10:04:08;27.70;21.30
9772;DHT22;4925;52.588;13.370;2023-05-28T10:06:37;27.60;21.10
9772;DHT22;4925;52.588;13.370;2023-05-28T10:09:04;27.90;21.00
9772;DHT22;4925;52.588;13.370;2023-05-28T10:11:36;28.00;19.80
9772;DHT22;4925;52.588;13.370;2023-05-28T10:14:03;27.90;19.10
9772;DHT22;4925;52.588;13.370;2023-05-28T10:16:31;28.20;19.10
9772;DHT22;4925;52.588;13.370;2023-05-28T10:18:57;28.60;17.60
9772;DHT22;4925;52.588;13.370;2023-05-28T10:21:24;28.60;18.00
9772;DHT22;4925;52.588;13.370;2023-05-28T10:23:50;27.30;18.20
9772;DHT22;4925;52.588;13.370;2023-05-28T10:26:17;27.70;19.20
9772;DHT22;4925;52.588;13.370;2023-05-28T10:28:44;28.30;18.50
9772;DHT22;4925;52.588;13.370;2023-05-28T10:31:10;28.30;18.50
9772;DHT22;4925;52.588;13.370;2023-05-28T10:33:43;28.60;18.30
9772;DHT22;4925;52.588;13.370;2023-05-28T10:36:11;28.80;18.00
9772;DHT22;4925;52.588;13.370;2023-05-28T10:41:21;28.80;17.30
9772;DHT22;4925;52.588;13.370;2023-05-28T10:43:47;28.30;16.80
9772;DHT22;4925;52.588;13.370;2023-05-28T10:46:18;27.60;17.30
9772;DHT22;4925;52.588;13.370;2023-05-28T10:51:57;27.90;17.50
9772;DHT22;4925;52.588;13.370;2023-05-28T10:59:57;27.80;18.20
9772;DHT22;4925;52.588;13.370;2023-05-28T11:04:54;28.80;17.20
9772;DHT22;4925;52.588;13.370;2023-05-28T11:07:22;29.20;17.10
9772;DHT22;4925;52.588;13.370;2023-05-28T11:09:51;29.40;16.90
9772;DHT22;4925;52.588;13.370;2023-05-28T11:12:19;30.00;16.50
9772;DHT22;4925;52.588;13.370;2023-05-28T11:14:45;30.50;15.80
9772;DHT22;4925;52.588;13.370;2023-05-28T11:17:12;30.80;14.80
9772;DHT22;4925;52.588;13.370;2023-05-28T11:22:07;31.90;13.70
9772;DHT22;4925;52.588;13.370;2023-05-28T11:24:35;32.20;13.40
9772;DHT22;4925;52.588;13.370;2023-05-28T11:27:13;32.60;12.70
9772;DHT22;4925;52.588;13.370;2023-05-28T11:29:39;32.10;12.40
9772;DHT22;4925;52.588;13.370;2023-05-28T11:32:05;32.20;12.70
9772;DHT22;4925;52.588;13.370;2023-05-28T11:34:31;31.80;12.60
9772;DHT22;4925;52.588;13.370;2023-05-28T11:36:56;31.60;12.50
9772;DHT22;4925;52.588;13.370;2023-05-28T11:39:24;31.90;12.50
9772;DHT22;4925;52.588;13.370;2023-05-28T11:41:49;32.20;12.30
9772;DHT22;4925;52.588;13.370;2023-05-28T11:44:22;32.30;12.20
9772;DHT22;4925;52.588;13.370;2023-05-28T11:46:55;32.00;12.20
9772;DHT22;4925;52.588;13.370;2023-05-28T11:49:22;32.60;12.50
9772;DHT22;4925;52.588;13.370;2023-05-28T11:51:52;31.80;11.60
9772;DHT22;4925;52.588;13.370;2023-05-28T11:54:18;31.20;12.30
9772;DHT22;4925;52.588;13.370;2023-05-28T11:56:43;31.30;12.30
9772;DHT22;4925;52.588;13.370;2023-05-28T11:59:12;30.40;12.20
9772;DHT22;4925;52.588;13.370;2023-05-28T12:01:39;31.20;12.90
9772;DHT22;4925;52.588;13.370;2023-05-28T12:04:05;31.90;12.60
9772;DHT22;4925;52.588;13.370;2023-05-28T12:06:34;32.40;12.40
9772;DHT22;4925;52.588;13.370;2023-05-28T12:09:07;32.60;11.50
9772;DHT22;4925;52.588;13.370;2023-05-28T12:11:34;33.00;12.20
9772;DHT22;4925;52.588;13.370;2023-05-28T12:14:11;33.30;11.00
9772;DHT22;4925;52.588;13.370;2023-05-28T12:16:46;33.20;10.10
9772;DHT22;4925;52.588;13.370;2023-05-28T12:19:14;33.00;10.50
9772;DHT22;4925;52.588;13.370;2023-05-28T12:21:41;33.00;10.70
9772;DHT22;4925;52.588;13.370;2023-05-28T12:24:14;32.80;10.20
9772;DHT22;4925;52.588;13.370;2023-05-28T12:26:43;31.80;9.80
9772;DHT22;4925;52.588;13.370;2023-05-28T12:29:09;31.80;10.80
9772;DHT22;4925;52.588;13.370;2023-05-28T12:31:34;32.10;11.10
9772;DHT22;4925;52.588;13.370;2023-05-28T12:34:01;32.00;10.20
9772;DHT22;4925;52.588;13.370;2023-05-28T12:36:26;32.40;10.20
9772;DHT22;4925;52.588;13.370;2023-05-28T12:38:52;33.00;10.00
9772;DHT22;4925;52.588;13.370;2023-05-28T12:41:18;33.70;9.70
9772;DHT22;4925;52.588;13.370;2023-05-28T12:43:43;33.60;9.10
9772;DHT22;4925;52.588;13.370;2023-05-28T12:46:10;33.90;9.10
9772;DHT22;4925;52.588;13.370;2023-05-28T12:48:35;34.50;9.00
9772;DHT22;4925;52.588;13.370;2023-05-28T12:51:02;34.80;8.90
9772;DHT22;4925;52.588;13.370;2023-05-28T12:53:28;35.10;8.60
9772;DHT22;4925;52.588;13.370;2023-05-28T12:55:54;33.80;8.20
9772;DHT22;4925;52.588;13.370;2023-05-28T12:58:20;33.80;9.50
9772;DHT22;4925;52.588;13.370;2023-05-28T13:00:47;33.80;9.20
9772;DHT22;4925;52.588;13.370;2023-05-28T13:03:13;32.70;9.10
9772;DHT22;4925;52.588;13.370;2023-05-28T13:05:39;32.30;10.10
9772;DHT22;4925;52.588;13.370;2023-05-28T13:08:05;32.30;10.40
9772;DHT22;4925;52.588;13.370;2023-05-28T13:10:31;32.10;10.20
9772;DHT22;4925;52.588;13.370;2023-05-28T13:12:56;32.30;10.10
9772;DHT22;4925;52.588;13.370;2023-05-28T13:15:23;32.10;10.60
9772;DHT22;4925;52.588;13.370;2023-05-28T13:17:49;31.90;10.80
9772;DHT22;4925;52.588;13.370;2023-05-28T13:20:14;31.50;10.90
9772;DHT22;4925;52.588;13.370;2023-05-28T13:22:41;31.00;11.10
9772;DHT22;4925;52.588;13.370;2023-05-28T13:25:07;30.10;10.90
9772;DHT22;4925;52.588;13.370;2023-05-28T13:27:33;29.20;11.70
9772;DHT22;4925;52.588;13.370;2023-05-28T13:29:59;29.30;12.80
9772;DHT22;4925;52.588;13.370;2023-05-28T13:32:26;29.60;13.00
9772;DHT22;4925;52.588;13.370;2023-05-28T13:34:51;29.80;12.90
9772;DHT22;4925;52.588;13.370;2023-05-28T13:37:17;30.10;13.20
9772;DHT22;4925;52.588;13.370;2023-05-28T13:39:43;30.30;12.10
9772;DHT22;4925;52.588;13.370;2023-05-28T13:42:09;30.50;12.30
9772;DHT22;4925;52.588;13.370;2023-05-28T13:44:35;30.80;12.10
9772;DHT22;4925;52.588;13.370;2023-05-28T13:47:01;31.00;11.90
9772;DHT22;4925;52.588;13.370;2023-05-28T13:49:28;31.20;11.20
9772;DHT22;4925;52.588;13.370;2023-05-28T13:51:53;31.40;11.40
9772;DHT22;4925;52.588;13.370;2023-05-28T13:54:19;31.20;11.50
9772;DHT22;4925;52.588;13.370;2023-05-28T13:56:45;31.30;11.40
9772;DHT22;4925;52.588;13.370;2023-05-28T13:59:11;31.50;11.40
9772;DHT22;4925;52.588;13.370;2023-05-28T14:01:36;31.50;10.90
9772;DHT22;4925;52.588;13.370;2023-05-28T14:04:02;31.30;10.90
9772;DHT22;4925;52.588;13.370;2023-05-28T14:06:28;30.70;11.40
9772;DHT22;4925;52.588;13.370;2023-05-28T14:08:54;30.40;11.50
9772;DHT22;4925;52.588;13.370;2023-05-28T14:11:20;30.10;11.80
9772;DHT22;4925;52.588;13.370;2023-05-28T14:13:46;29.90;12.10
9772;DHT22;4925;52.588;13.370;2023-05-28T14:16:11;29.90;12.30
9772;DHT22;4925;52.588;13.370;2023-05-28T14:18:37;29.70;12.40
9772;DHT22;4925;52.588;13.370;2023-05-28T14:21:03;29.10;11.80
9772;DHT22;4925;52.588;13.370;2023-05-28T14:23:29;29.20;12.10
9772;DHT22;4925;52.588;13.370;2023-05-28T14:25:54;29.00;12.60
9772;DHT22;4925;52.588;13.370;2023-05-28T14:28:20;29.10;13.10
9772;DHT22;4925;52.588;13.370;2023-05-28T14:30:46;28.90;12.50
9772;DHT22;4925;52.588;13.370;2023-05-28T14:33:13;29.00;12.70
9772;DHT22;4925;52.588;13.370;2023-05-28T14:35:38;29.00;13.00
9772;DHT22;4925;52.588;13.370;2023-05-28T14:38:04;28.90;13.00
9772;DHT22;4925;52.588;13.370;2023-05-28T14:40:30;28.70;13.20
9772;DHT22;4925;52.588;13.370;2023-05-28T14:42:55;28.40;13.40
9772;DHT22;4925;52.588;13.370;2023-05-28T14:45:21;28.20;13.90
9772;DHT22;4925;52.588;13.370;2023-05-28T14:47:47;28.10;13.90
9772;DHT22;4925;52.588;13.370;2023-05-28T14:50:13;28.00;13.90
9772;DHT22;4925;52.588;13.370;2023-05-28T14:52:38;27.80;14.10
9772;DHT22;4925;52.588;13.370;2023-05-28T14:55:04;27.70;14.20
9772;DHT22;4925;52.588;13.370;2023-05-28T14:57:30;27.60;14.40
9772;DHT22;4925;52.588;13.370;2023-05-28T15:00:01;27.50;14.60
9772;DHT22;4925;52.588;13.370;2023-05-28T15:02:35;27.60;14.90
9772;DHT22;4925;52.588;13.370;2023-05-28T15:05:02;27.80;14.90
9772;DHT22;4925;52.588;13.370;2023-05-28T15:07:29;27.90;14.80
9772;DHT22;4925;52.588;13.370;2023-05-28T15:09:55;28.00;14.70
9772;DHT22;4925;52.588;13.370;2023-05-28T15:12:21;28.00;14.60
9772;DHT22;4925;52.588;13.370;2023-05-28T15:14:47;28.00;14.90
9772;DHT22;4925;52.588;13.370;2023-05-28T15:17:12;28.00;14.90
9772;DHT22;4925;52.588;13.370;2023-05-28T15:19:38;28.10;14.70
9772;DHT22;4925;52.588;13.370;2023-05-28T15:22:06;28.10;14.80
9772;DHT22;4925;52.588;13.370;2023-05-28T15:24:32;28.10;14.80
9772;DHT22;4925;52.588;13.370;2023-05-28T15:27:00;28.00;15.00
9772;DHT22;4925;52.588;13.370;2023-05-28T15:29:28;28.00;14.80
9772;DHT22;4925;52.588;13.370;2023-05-28T15:31:54;28.10;14.90
9772;DHT22;4925;52.588;13.370;2023-05-28T15:34:20;28.10;15.30
9772;DHT22;4925;52.588;13.370;2023-05-28T15:36:46;28.10;14.90
9772;DHT22;4925;52.588;13.370;2023-05-28T15:39:12;28.20;14.90
9772;DHT22;4925;52.588;13.370;2023-05-28T15:41:41;28.30;14.90
9772;DHT22;4925;52.588;13.370;2023-05-28T15:44:07;28.10;14.90
9772;DHT22;4925;52.588;13.370;2023-05-28T15:46:33;27.90;15.00
9772;DHT22;4925;52.588;13.370;2023-05-28T15:48:59;27.90;15.80
9772;DHT22;4925;52.588;13.370;2023-05-28T15:51:25;27.70;15.20
9772;DHT22;4925;52.588;13.370;2023-05-28T15:53:51;27.60;15.10
9772;DHT22;4925;52.588;13.370;2023-05-28T15:56:16;27.60;15.20
9772;DHT22;4925;52.588;13.370;2023-05-28T15:58:42;27.60;15.30
9772;DHT22;4925;52.588;13.370;2023-05-28T16:01:08;27.50;15.40